WetterOnline ( https://www.wetteronline.de )

Wetter aktuell Heiligenhafen

Aktuelles Wetter: Pelzerhaken/Neustadt i.H. (2m)

6-stündlich | Neueste Meldungen
Ortszeit Temperatur Wetter
Fr, 02.12. 13:00 4.3° C bedeckt
Fr, 02.12. 7:00 2.2° C leichter Regen
Fr, 02.12. 1:00 2.3° C bedeckt
Do, 01.12. 19:00 2.9° C bedeckt
Do, 01.12. 13:00 2.8° C bedeckt
Do, 01.12. 7:00 3.7° C bewölkt
Do, 01.12. 1:00 4.5° C bewölkt
Mi, 30.11. 19:00 4.5° C leichter Regen
Ortszeit Temperatur Wetter
Fr, 02.12. 13:30 4.1° C bedeckt
Fr, 02.12. 13:20 4.1° C bedeckt
Fr, 02.12. 13:10 4.1° C bedeckt
Fr, 02.12. 13:00 4.3° C bedeckt
Fr, 02.12. 12:50 4.3° C bedeckt
Fr, 02.12. 12:40 4.1° C bewölkt
Fr, 02.12. 12:30 3.8° C bedeckt
Fr, 02.12. 12:00 3.5° C bedeckt
Fr, 02.12. 11:30 3.5° C bedeckt
Fr, 02.12. 11:00 3.4° C bedeckt
Fr, 02.12. 10:30 3.7° C bedeckt
Ortszeit Relative Feuchte Sichtweite
Fr, 02.12. 13:00 72% 29 km
Fr, 02.12. 7:00 90% 8 km
Fr, 02.12. 1:00 84% 10 km
Do, 01.12. 19:00 85% 7 km
Do, 01.12. 13:00 86% 13 km
Do, 01.12. 7:00 83% 8 km
Do, 01.12. 1:00 89% 5.0 km
Mi, 30.11. 19:00 91% 4.6 km
Ortszeit Relative Feuchte Sichtweite
Fr, 02.12. 13:30 74% 27 km
Fr, 02.12. 13:20 74% -
Fr, 02.12. 13:10 72% -
Fr, 02.12. 13:00 72% 29 km
Fr, 02.12. 12:50 72% -
Fr, 02.12. 12:40 72% -
Fr, 02.12. 12:30 73% 24 km
Fr, 02.12. 12:00 72% 23 km
Fr, 02.12. 11:30 73% 20 km
Fr, 02.12. 11:00 78% 17 km
Fr, 02.12. 10:30 76% 21 km
Ortszeit Niederschlagsmenge Niederschlagsart
Fr, 02.12. 13:00 0.1 l/m2 in 6 Std. Regen
Fr, 02.12. 7:00 1 l/m2 in 12 Std. Schnee, Regen
Fr, 02.12. 1:00 0.1 l/m2 in 6 Std. Sprühregen
Do, 01.12. 19:00 0.1 l/m2 in 12 Std. Regen
Do, 01.12. 13:00 0.1 l/m2 in 6 Std. Regen
Do, 01.12. 7:00 0.2 l/m2 in 12 Std. Regen
Do, 01.12. 1:00 0.2 l/m2 in 6 Std. Regen
Mi, 30.11. 19:00 1 l/m2 in 12 Std. Regen
Ortszeit Niederschlagsmenge Niederschlagsart
Fr, 02.12. 13:30 0.0 l/m2 in 30 Min -
Fr, 02.12. 13:20 keine Meldung -
Fr, 02.12. 13:10 keine Meldung -
Fr, 02.12. 13:00 0.0 l/m2 in 1 Std. Regen
Fr, 02.12. 12:50 keine Meldung -
Fr, 02.12. 12:40 keine Meldung -
Fr, 02.12. 12:30 0.0 l/m2 in 30 Min -
Fr, 02.12. 12:00 0.0 l/m2 in 1 Std. -
Fr, 02.12. 11:30 0.0 l/m2 in 30 Min -
Fr, 02.12. 11:00 0.0 l/m2 in 1 Std. -
Fr, 02.12. 10:30 0.0 l/m2 in 30 Min -
Ortszeit Stärke Spitze Richtung
km/h Bft. km/h Grad Sektor
Fr, 02.12. 13:00 28 4 41 90° O
Fr, 02.12. 7:00 20 4 28 100° O
Fr, 02.12. 1:00 14 3 25 120° SO
Do, 01.12. 19:00 19 3 28 110° O
Do, 01.12. 13:00 11 2 29 120° SO
Do, 01.12. 7:00 13 3 24 80° O
Do, 01.12. 1:00 9 2 24 130° SO
Mi, 30.11. 19:00 18 3 22 140° SO
Ortszeit Stärke Spitze Richtung
km/h Bft. km/h Grad Sektor
Fr, 02.12. 13:30 26 4 37 100° O
Fr, 02.12. 13:20 26 4 - 100° O
Fr, 02.12. 13:10 28 4 - 90° O
Fr, 02.12. 13:00 28 4 41 90° O
Fr, 02.12. 12:50 28 4 - 90° O
Fr, 02.12. 12:40 25 4 - 100° O
Fr, 02.12. 12:30 24 4 33 100° O
Fr, 02.12. 12:00 22 4 36 110° O
Fr, 02.12. 11:30 25 4 36 110° O
Fr, 02.12. 11:00 25 4 36 100° O
Fr, 02.12. 10:30 28 4 37 100° O
Ortszeit Untergrenze Bedeckung Gattung
total tief tief mittel hoch
Fr, 02.12. 13:00 720 m 8/8 8/8 - - -
Fr, 02.12. 7:00 270 m 8/8 8/8 - - -
Fr, 02.12. 1:00 390 m 8/8 8/8 - - -
Do, 01.12. 19:00 360 m 8/8 8/8 - - -
Do, 01.12. 13:00 300 m 8/8 8/8 - - -
Do, 01.12. 7:00 360 m 8/8 7/8 - - -
Do, 01.12. 1:00 270 m 7/8 7/8 - - -
Mi, 30.11. 19:00 270 m 8/8 8/8 - - -
Ortszeit Bedeckungsgrad in Achtel und Wolkenuntergrenze
Fr, 02.12. 13:30 3(660m) 3(840m) 8(1200m)
Fr, 02.12. 13:20 3(660m) 3(840m) 8(1200m)
Fr, 02.12. 13:10 8
Fr, 02.12. 13:00 3(720m) 5(900m) 8(1260m)
Fr, 02.12. 12:50 3(720m) 5(900m) 8(1260m)
Fr, 02.12. 12:40 7
Fr, 02.12. 12:30 5(810m) 8(960m)
Fr, 02.12. 12:00 4(720m) 8(930m)
Fr, 02.12. 11:30 1(510m) 8(870m)
Fr, 02.12. 11:00 3(540m) 8(870m)
Fr, 02.12. 10:30 8(810m)
Ortszeit Luftdruck NN (hPa) Tendenz (hPa in 3 Std.)
Fr, 02.12. 13:00 1029 - 0,2
Fr, 02.12. 7:00 1029 - 0,4
Fr, 02.12. 1:00 1030 - 0,5
Do, 01.12. 19:00 1030 + 0,1
Do, 01.12. 13:00 1030 - 0,1
Do, 01.12. 7:00 1029 + 0,4
Do, 01.12. 1:00 1029 + 0,2
Mi, 30.11. 19:00 1028 + 0,9
Ortszeit Luftdruck NN (hPa) Tendenz (hPa in 3 Std.)
Fr, 02.12. 13:30 1029 - 0,3
Fr, 02.12. 13:20 1029 keine Meldung
Fr, 02.12. 13:10 1029 keine Meldung
Fr, 02.12. 13:00 1029 - 0,2
Fr, 02.12. 12:50 1029 keine Meldung
Fr, 02.12. 12:40 1029 keine Meldung
Fr, 02.12. 12:30 1029 + 0,1
Fr, 02.12. 12:00 1029 + 0,4
Fr, 02.12. 11:30 1030 + 0,7
Fr, 02.12. 11:00 1029 + 0,7
Fr, 02.12. 10:30 1029 + 0,5
Ortszeit Schneehöhe (cm)
Fr, 02.12. 13:00 0
Fr, 02.12. 7:00 0
Fr, 02.12. 1:00 0
Do, 01.12. 19:00 0
Do, 01.12. 13:00 0
Do, 01.12. 7:00 0
Do, 01.12. 1:00 0
Mi, 30.11. 19:00 0
Ortszeit Schneehöhe (cm)
Fr, 02.12. 13:30 0
Fr, 02.12. 13:20 0
Fr, 02.12. 13:10 0
Fr, 02.12. 13:00 0
Fr, 02.12. 12:50 0
Fr, 02.12. 12:40 0
Fr, 02.12. 12:30 0
Fr, 02.12. 12:00 0
Fr, 02.12. 11:30 0
Fr, 02.12. 11:00 0
Fr, 02.12. 10:30 0
Link zu dieser Seite / Seite empfehlen

Das Wetter in ...